createdAt,value
2023-07-24T00:03:35.901Z,62.61
2023-07-24T00:08:41.401Z,62.68
2023-07-24T00:13:47.338Z,62.99
2023-07-24T00:18:52.772Z,62.86
2023-07-24T00:23:58.354Z,62.90
2023-07-24T00:29:04.019Z,62.72
2023-07-24T00:34:09.526Z,62.77
2023-07-24T00:39:14.965Z,62.77
2023-07-24T00:44:21.420Z,62.58
2023-07-24T00:49:27.479Z,62.56
2023-07-24T00:54:33.901Z,62.67
2023-07-24T00:59:39.339Z,62.49
2023-07-24T01:04:44.737Z,62.60
2023-07-24T01:09:52.487Z,62.59
2023-07-24T01:15:01.180Z,62.71
2023-07-24T01:20:07.164Z,62.53
2023-07-24T01:25:23.494Z,62.43
2023-07-24T01:30:29.167Z,62.55
2023-07-24T01:35:34.970Z,62.28
2023-07-24T01:40:41.201Z,62.28
2023-07-24T01:45:46.812Z,62.28
2023-07-24T01:50:52.272Z,62.55
2023-07-24T01:55:57.672Z,62.71
2023-07-24T02:01:03.094Z,62.75
2023-07-24T02:06:08.404Z,62.71
2023-07-24T02:11:13.683Z,62.87
2023-07-24T02:16:19.643Z,62.80
2023-07-24T02:21:25.214Z,63.11
2023-07-24T02:26:33.603Z,62.91
2023-07-24T02:31:41.618Z,62.92
2023-07-24T02:36:47.090Z,62.99
2023-07-24T02:41:52.580Z,62.87
2023-07-24T02:46:58.101Z,62.78
2023-07-24T02:52:03.614Z,62.75
2023-07-24T02:57:09.666Z,62.84
2023-07-24T03:02:16.625Z,63.12
2023-07-24T03:07:22.188Z,63.25
2023-07-24T03:12:27.853Z,63.43
2023-07-24T03:17:33.403Z,63.62
2023-07-24T03:22:38.868Z,63.81
2023-07-24T03:27:46.365Z,63.82
2023-07-24T03:32:52.179Z,63.76
2023-07-24T03:37:57.748Z,63.80
2023-07-24T03:43:05.083Z,63.93
2023-07-24T03:48:10.731Z,64.15
2023-07-24T03:53:16.177Z,64.34
2023-07-24T03:58:21.770Z,64.42
2023-07-24T04:03:27.352Z,64.63
2023-07-24T04:08:32.828Z,64.86
2023-07-24T04:13:38.407Z,64.93
2023-07-24T04:18:43.993Z,64.95
2023-07-24T04:23:49.436Z,64.82
2023-07-24T04:28:54.995Z,64.92
2023-07-24T04:34:00.663Z,65.04
2023-07-24T04:39:06.110Z,64.95
2023-07-24T04:44:11.504Z,64.91
2023-07-24T04:49:17.126Z,64.70
2023-07-24T04:54:22.751Z,64.77
2023-07-24T04:59:28.342Z,64.34
2023-07-24T05:04:33.764Z,64.22
2023-07-24T05:09:39.154Z,64.12
2023-07-24T05:14:44.547Z,63.96
2023-07-24T05:19:50.117Z,63.83
2023-07-24T05:24:55.632Z,63.77
2023-07-24T05:30:01.108Z,63.56
2023-07-24T05:35:07.395Z,63.22
2023-07-24T05:40:13.428Z,62.99
2023-07-24T05:45:19.223Z,62.78
2023-07-24T05:50:25.118Z,62.55
2023-07-24T05:55:30.515Z,62.14
2023-07-24T06:00:37.043Z,61.50
2023-07-24T06:05:42.709Z,61.29
2023-07-24T06:10:48.661Z,61.06
2023-07-24T06:15:55.122Z,60.90
2023-07-24T06:21:00.917Z,60.71
2023-07-24T06:26:06.815Z,60.69
2023-07-24T06:31:12.987Z,60.29
2023-07-24T06:36:19.652Z,60.33
2023-07-24T06:41:25.567Z,60.42
2023-07-24T06:46:36.683Z,60.38
2023-07-24T06:51:42.935Z,59.93
2023-07-24T06:56:49.092Z,59.79
2023-07-24T07:01:54.812Z,59.76
2023-07-24T07:07:01.252Z,59.58
2023-07-24T07:12:08.577Z,59.53
2023-07-24T07:17:14.686Z,59.22
2023-07-24T07:22:20.979Z,59.42
2023-07-24T07:27:26.358Z,59.32
2023-07-24T07:32:31.643Z,58.90
2023-07-24T07:37:38.520Z,58.44
2023-07-24T07:42:45.076Z,58.28
2023-07-24T07:47:51.674Z,58.03
2023-07-24T07:52:58.319Z,57.49
2023-07-24T07:58:04.654Z,57.37
2023-07-24T08:03:10.114Z,57.01
2023-07-24T08:08:16.873Z,57.30
2023-07-24T08:13:23.690Z,57.25
2023-07-24T08:18:30.528Z,56.76
2023-07-24T08:23:36.628Z,56.31
2023-07-24T08:28:44.378Z,56.31
2023-07-24T08:33:51.095Z,56.31
2023-07-24T08:38:57.664Z,56.20
2023-07-24T08:44:04.491Z,56.19
2023-07-24T08:49:14.573Z,55.83
2023-07-24T08:54:22.716Z,55.55
2023-07-24T08:59:29.179Z,55.68
2023-07-24T09:04:34.927Z,54.97
2023-07-24T09:09:42.774Z,54.56
2023-07-24T09:14:49.280Z,54.57
2023-07-24T09:20:00.326Z,54.29
2023-07-24T09:25:07.428Z,54.18
2023-07-24T09:30:17.070Z,54.13
2023-07-24T09:35:27.516Z,53.97
2023-07-24T09:40:40.574Z,53.89
2023-07-24T09:45:46.324Z,53.56
2023-07-24T09:50:56.560Z,53.46
2023-07-24T09:56:05.831Z,53.53
2023-07-24T10:01:11.785Z,53.00
2023-07-24T10:06:17.736Z,52.79
2023-07-24T10:11:23.619Z,52.66
2023-07-24T10:16:29.240Z,52.35
2023-07-24T10:21:34.963Z,51.99
2023-07-24T10:26:40.893Z,52.21
2023-07-24T10:31:55.369Z,52.59
2023-07-24T10:37:06.673Z,52.52
2023-07-24T10:42:13.069Z,52.39
2023-07-24T10:47:18.802Z,52.77
2023-07-24T10:52:32.368Z,52.72
2023-07-24T10:57:37.920Z,52.74
2023-07-24T11:02:43.340Z,52.54
2023-07-24T11:07:48.993Z,52.70
2023-07-24T11:12:55.325Z,52.72
2023-07-24T11:18:00.703Z,52.55
2023-07-24T11:23:06.208Z,52.97
2023-07-24T11:28:12.786Z,52.71
2023-07-24T11:33:19.944Z,52.27
2023-07-24T11:38:25.476Z,52.26
2023-07-24T11:43:31.336Z,52.40
2023-07-24T11:48:44.468Z,52.28
2023-07-24T11:53:50.249Z,51.98
2023-07-24T11:58:55.773Z,51.98
2023-07-24T12:04:01.233Z,51.70
2023-07-24T12:09:08.083Z,51.79
2023-07-24T12:14:13.673Z,51.31
2023-07-24T12:19:19.591Z,50.62
2023-07-24T12:24:25.551Z,50.34
2023-07-24T12:29:31.504Z,50.52
2023-07-24T12:34:36.853Z,50.67
2023-07-24T12:39:42.671Z,50.75
2023-07-24T12:44:48.857Z,50.40
2023-07-24T12:49:57.560Z,50.62
2023-07-24T12:55:03.356Z,50.54
2023-07-24T13:00:11.025Z,49.97
2023-07-24T13:05:17.249Z,49.46
2023-07-24T13:10:23.016Z,49.52
2023-07-24T13:15:28.606Z,49.81
2023-07-24T13:20:34.236Z,50.00
2023-07-24T13:25:39.956Z,49.90
2023-07-24T13:30:46.096Z,49.32
2023-07-24T13:35:51.781Z,49.01
2023-07-24T13:40:57.761Z,48.76
2023-07-24T13:46:04.624Z,48.73
2023-07-24T13:51:10.964Z,48.84
2023-07-24T14:02:35.675Z,49.03
2023-07-24T14:07:41.390Z,49.14
2023-07-24T14:12:46.771Z,49.11
2023-07-24T14:17:52.294Z,49.06
2023-07-24T14:22:57.768Z,48.49
2023-07-24T14:28:03.069Z,47.74
2023-07-24T14:33:12.120Z,47.83
2023-07-24T14:38:17.564Z,47.38
2023-07-24T14:43:22.883Z,47.39
2023-07-24T14:48:28.727Z,47.32
2023-07-24T14:53:34.119Z,46.86
2023-07-24T14:58:39.570Z,46.87
2023-07-24T15:03:45.266Z,45.66
2023-07-24T15:08:54.926Z,45.21
2023-07-24T15:14:00.413Z,45.18
2023-07-24T15:19:05.830Z,45.19
2023-07-24T15:24:11.816Z,45.20
2023-07-24T15:29:19.854Z,44.89
2023-07-24T15:34:26.247Z,44.95
2023-07-24T15:39:31.759Z,44.60
2023-07-24T15:44:37.369Z,44.02
2023-07-24T15:49:42.909Z,43.98
2023-07-24T15:54:48.292Z,44.10
2023-07-24T15:59:53.733Z,43.75
2023-07-24T16:04:59.177Z,43.49
2023-07-24T16:10:04.616Z,43.39
2023-07-24T16:15:11.544Z,43.24
2023-07-24T16:20:17.597Z,42.88
2023-07-24T16:25:22.967Z,42.77
2023-07-24T16:30:28.375Z,42.69
2023-07-24T16:35:33.972Z,42.74
2023-07-24T16:40:39.419Z,42.88
2023-07-24T16:46:04.206Z,42.57
2023-07-24T16:51:10.460Z,42.39
2023-07-24T16:56:15.855Z,42.07
2023-07-24T17:01:21.214Z,41.69
2023-07-24T17:06:26.936Z,41.81
2023-07-24T17:11:32.697Z,41.59
2023-07-24T17:16:38.211Z,41.69
2023-07-24T17:21:44.772Z,41.87
2023-07-24T17:26:49.999Z,42.28
2023-07-24T17:31:55.175Z,42.39
2023-07-24T17:37:00.531Z,42.79
2023-07-24T17:42:06.372Z,42.91
2023-07-24T17:47:11.819Z,43.02
2023-07-24T17:52:17.567Z,43.23
2023-07-24T17:57:22.827Z,43.53
2023-07-24T18:02:28.367Z,43.79
2023-07-24T18:07:35.196Z,43.98
2023-07-24T18:12:40.524Z,44.09
2023-07-24T18:17:47.054Z,44.23
2023-07-24T18:22:52.521Z,44.30
2023-07-24T18:27:58.115Z,44.54
2023-07-24T18:33:03.964Z,44.73
2023-07-24T18:38:11.383Z,45.13
2023-07-24T18:43:16.931Z,45.71
2023-07-24T18:48:22.370Z,45.76
2023-07-24T18:53:28.043Z,45.79
2023-07-24T18:58:33.596Z,45.96
2023-07-24T19:03:39.319Z,46.23
2023-07-24T19:08:44.833Z,46.38
2023-07-24T19:13:50.226Z,46.55
2023-07-24T19:18:55.587Z,46.62
2023-07-24T19:24:00.897Z,46.85
2023-07-24T19:29:06.324Z,46.94
2023-07-24T19:35:01.683Z,47.10
2023-07-24T19:40:08.435Z,47.25
2023-07-24T19:45:13.991Z,47.52
2023-07-24T19:50:19.681Z,47.66
2023-07-24T19:55:25.535Z,47.83
2023-07-24T20:00:33.082Z,47.80
2023-07-24T20:05:38.923Z,47.96
2023-07-24T20:10:47.343Z,47.97
2023-07-24T20:15:53.392Z,48.16
2023-07-24T20:20:59.334Z,48.32
2023-07-24T20:26:06.093Z,48.38
2023-07-24T20:31:12.404Z,48.44
2023-07-24T20:36:18.765Z,48.70
2023-07-24T20:41:24.485Z,48.75
2023-07-24T20:46:31.246Z,48.85
2023-07-24T20:51:37.047Z,48.95
2023-07-24T20:56:43.275Z,48.96
2023-07-24T21:01:48.958Z,49.14
2023-07-24T21:06:55.339Z,49.23
2023-07-24T21:12:01.504Z,49.27
2023-07-24T21:17:07.839Z,49.25
2023-07-24T21:22:14.708Z,49.40
2023-07-24T21:27:20.607Z,49.48
2023-07-24T21:32:26.294Z,49.74
2023-07-24T21:37:32.030Z,49.86
2023-07-24T21:42:37.424Z,50.11
2023-07-24T21:47:43.192Z,50.08
2023-07-24T21:52:48.678Z,50.18
2023-07-24T21:57:56.414Z,50.45
2023-07-24T22:03:02.536Z,50.33
2023-07-24T22:08:08.671Z,50.43
2023-07-24T22:13:14.055Z,50.56
2023-07-24T22:18:19.608Z,50.86
2023-07-24T22:23:26.024Z,50.96
2023-07-24T22:28:31.832Z,51.37
2023-07-24T22:33:38.303Z,51.44
2023-07-24T22:38:43.750Z,51.50
2023-07-24T22:43:49.186Z,51.97
2023-07-24T22:48:54.481Z,52.18
2023-07-24T22:53:59.887Z,52.32
2023-07-24T22:59:25.419Z,52.55
2023-07-24T23:04:31.158Z,52.85
2023-07-24T23:09:36.943Z,52.96
2023-07-24T23:14:42.651Z,53.17
2023-07-24T23:19:48.051Z,53.21
2023-07-24T23:24:53.743Z,53.15
2023-07-24T23:30:02.141Z,53.16
2023-07-24T23:35:08.114Z,53.26
2023-07-24T23:40:14.196Z,53.28
2023-07-24T23:45:19.784Z,53.05
2023-07-24T23:50:25.302Z,53.20
2023-07-24T23:55:32.722Z,53.05
